sensor_id;sensor_type;location;lat;lon;timestamp;P1;durP1;ratioP1;P2;durP2;ratioP2
37843;SDS011;63793;57.632;18.292;2023-05-17T00:00:57;12.45;;;10.20;;
37843;SDS011;63793;57.632;18.292;2023-05-17T00:03:24;12.73;;;11.15;;
37843;SDS011;63793;57.632;18.292;2023-05-17T00:05:51;12.20;;;11.05;;
37843;SDS011;63793;57.632;18.292;2023-05-17T00:08:18;13.02;;;11.70;;
37843;SDS011;63793;57.632;18.292;2023-05-17T00:10:48;17.50;;;11.40;;
37843;SDS011;63793;57.632;18.292;2023-05-17T00:13:14;14.93;;;13.23;;
37843;SDS011;63793;57.632;18.292;2023-05-17T00:15:41;12.05;;;10.95;;
37843;SDS011;63793;57.632;18.292;2023-05-17T00:18:08;17.88;;;11.52;;
37843;SDS011;63793;57.632;18.292;2023-05-17T00:20:35;16.23;;;12.35;;
37843;SDS011;63793;57.632;18.292;2023-05-17T00:23:02;18.02;;;11.85;;
37843;SDS011;63793;57.632;18.292;2023-05-17T00:25:29;18.38;;;10.30;;
37843;SDS011;63793;57.632;18.292;2023-05-17T00:27:56;20.45;;;10.90;;
37843;SDS011;63793;57.632;18.292;2023-05-17T00:30:23;19.70;;;9.90;;
37843;SDS011;63793;57.632;18.292;2023-05-17T00:32:50;26.02;;;11.00;;
37843;SDS011;63793;57.632;18.292;2023-05-17T00:35:17;19.17;;;10.70;;
37843;SDS011;63793;57.632;18.292;2023-05-17T00:37:44;14.20;;;8.77;;
37843;SDS011;63793;57.632;18.292;2023-05-17T00:40:13;18.27;;;9.43;;
37843;SDS011;63793;57.632;18.292;2023-05-17T00:42:43;13.15;;;8.30;;
37843;SDS011;63793;57.632;18.292;2023-05-17T00:45:10;17.55;;;9.45;;
37843;SDS011;63793;57.632;18.292;2023-05-17T00:47:37;12.52;;;9.02;;
37843;SDS011;63793;57.632;18.292;2023-05-17T00:50:05;19.17;;;7.60;;
37843;SDS011;63793;57.632;18.292;2023-05-17T00:52:32;12.95;;;7.07;;
37843;SDS011;63793;57.632;18.292;2023-05-17T00:54:59;16.52;;;8.85;;
37843;SDS011;63793;57.632;18.292;2023-05-17T00:57:27;11.55;;;6.30;;
37843;SDS011;63793;57.632;18.292;2023-05-17T00:59:54;19.00;;;7.95;;
37843;SDS011;63793;57.632;18.292;2023-05-17T01:02:22;22.65;;;7.40;;
37843;SDS011;63793;57.632;18.292;2023-05-17T01:04:49;16.13;;;6.60;;
37843;SDS011;63793;57.632;18.292;2023-05-17T01:07:16;12.77;;;6.68;;
37843;SDS011;63793;57.632;18.292;2023-05-17T01:09:45;18.85;;;5.57;;
37843;SDS011;63793;57.632;18.292;2023-05-17T01:12:31;16.70;;;6.63;;
37843;SDS011;63793;57.632;18.292;2023-05-17T01:15:14;12.32;;;5.97;;
37843;SDS011;63793;57.632;18.292;2023-05-17T01:20:47;21.60;;;6.78;;
37843;SDS011;63793;57.632;18.292;2023-05-17T01:26:39;20.25;;;5.60;;
37843;SDS011;63793;57.632;18.292;2023-05-17T01:28:53;19.23;;;6.90;;
37843;SDS011;63793;57.632;18.292;2023-05-17T01:31:22;12.32;;;4.78;;
37843;SDS011;63793;57.632;18.292;2023-05-17T01:33:49;14.35;;;4.95;;
37843;SDS011;63793;57.632;18.292;2023-05-17T01:36:16;17.83;;;5.43;;
37843;SDS011;63793;57.632;18.292;2023-05-17T01:38:43;16.33;;;5.25;;
37843;SDS011;63793;57.632;18.292;2023-05-17T01:41:14;13.02;;;4.43;;
37843;SDS011;63793;57.632;18.292;2023-05-17T01:44:05;20.65;;;5.10;;
37843;SDS011;63793;57.632;18.292;2023-05-17T01:46:54;15.25;;;5.18;;
37843;SDS011;63793;57.632;18.292;2023-05-17T01:49:33;20.90;;;6.55;;
37843;SDS011;63793;57.632;18.292;2023-05-17T01:52:18;12.00;;;5.07;;
37843;SDS011;63793;57.632;18.292;2023-05-17T01:54:55;31.42;;;7.13;;
37843;SDS011;63793;57.632;18.292;2023-05-17T01:57:32;19.65;;;5.63;;
37843;SDS011;63793;57.632;18.292;2023-05-17T02:00:05;13.93;;;5.18;;
37843;SDS011;63793;57.632;18.292;2023-05-17T02:02:43;22.73;;;9.23;;
37843;SDS011;63793;57.632;18.292;2023-05-17T02:05:11;18.23;;;7.00;;
37843;SDS011;63793;57.632;18.292;2023-05-17T02:07:38;25.13;;;6.30;;
37843;SDS011;63793;57.632;18.292;2023-05-17T02:10:05;17.45;;;6.18;;
37843;SDS011;63793;57.632;18.292;2023-05-17T02:12:34;17.65;;;5.07;;
37843;SDS011;63793;57.632;18.292;2023-05-17T02:15:02;13.05;;;5.22;;
37843;SDS011;63793;57.632;18.292;2023-05-17T02:17:29;18.77;;;7.00;;
37843;SDS011;63793;57.632;18.292;2023-05-17T02:19:56;16.40;;;5.32;;
37843;SDS011;63793;57.632;18.292;2023-05-17T02:22:23;15.98;;;6.28;;
37843;SDS011;63793;57.632;18.292;2023-05-17T02:24:50;12.35;;;5.10;;
37843;SDS011;63793;57.632;18.292;2023-05-17T02:27:16;14.02;;;6.18;;
37843;SDS011;63793;57.632;18.292;2023-05-17T02:29:43;17.45;;;5.43;;
37843;SDS011;63793;57.632;18.292;2023-05-17T02:32:10;27.40;;;6.10;;
37843;SDS011;63793;57.632;18.292;2023-05-17T02:34:37;15.80;;;4.60;;
37843;SDS011;63793;57.632;18.292;2023-05-17T02:37:04;15.82;;;5.38;;
37843;SDS011;63793;57.632;18.292;2023-05-17T02:39:31;20.23;;;6.53;;
37843;SDS011;63793;57.632;18.292;2023-05-17T02:41:59;22.42;;;6.13;;
37843;SDS011;63793;57.632;18.292;2023-05-17T02:44:26;18.00;;;6.28;;
37843;SDS011;63793;57.632;18.292;2023-05-17T02:46:52;19.02;;;7.05;;
37843;SDS011;63793;57.632;18.292;2023-05-17T02:49:19;14.95;;;6.20;;
37843;SDS011;63793;57.632;18.292;2023-05-17T02:51:46;26.08;;;8.05;;
37843;SDS011;63793;57.632;18.292;2023-05-17T02:54:13;17.70;;;5.95;;
37843;SDS011;63793;57.632;18.292;2023-05-17T02:56:40;17.80;;;6.53;;
37843;SDS011;63793;57.632;18.292;2023-05-17T02:59:07;27.55;;;9.18;;
37843;SDS011;63793;57.632;18.292;2023-05-17T03:01:36;18.92;;;6.50;;
37843;SDS011;63793;57.632;18.292;2023-05-17T03:04:03;17.40;;;7.40;;
37843;SDS011;63793;57.632;18.292;2023-05-17T03:06:30;14.85;;;6.40;;
37843;SDS011;63793;57.632;18.292;2023-05-17T03:08:57;17.13;;;7.40;;
37843;SDS011;63793;57.632;18.292;2023-05-17T03:11:24;32.05;;;6.70;;
37843;SDS011;63793;57.632;18.292;2023-05-17T03:13:53;20.70;;;6.85;;
37843;SDS011;63793;57.632;18.292;2023-05-17T03:16:24;14.98;;;6.15;;
37843;SDS011;63793;57.632;18.292;2023-05-17T03:18:51;16.33;;;5.70;;
37843;SDS011;63793;57.632;18.292;2023-05-17T03:21:18;21.77;;;6.53;;
37843;SDS011;63793;57.632;18.292;2023-05-17T03:23:46;17.52;;;6.60;;
37843;SDS011;63793;57.632;18.292;2023-05-17T03:26:14;14.80;;;5.85;;
37843;SDS011;63793;57.632;18.292;2023-05-17T03:28:47;17.77;;;6.20;;
37843;SDS011;63793;57.632;18.292;2023-05-17T03:31:15;20.27;;;5.65;;
37843;SDS011;63793;57.632;18.292;2023-05-17T03:33:43;18.17;;;5.32;;
37843;SDS011;63793;57.632;18.292;2023-05-17T03:36:11;12.18;;;4.63;;
37843;SDS011;63793;57.632;18.292;2023-05-17T03:38:39;19.63;;;5.63;;
37843;SDS011;63793;57.632;18.292;2023-05-17T03:41:06;13.60;;;4.93;;
37843;SDS011;63793;57.632;18.292;2023-05-17T03:43:33;20.25;;;6.00;;
37843;SDS011;63793;57.632;18.292;2023-05-17T03:46:00;16.95;;;5.68;;
37843;SDS011;63793;57.632;18.292;2023-05-17T03:48:27;14.52;;;5.18;;
37843;SDS011;63793;57.632;18.292;2023-05-17T03:50:54;18.17;;;6.38;;
37843;SDS011;63793;57.632;18.292;2023-05-17T03:53:21;15.73;;;5.65;;
37843;SDS011;63793;57.632;18.292;2023-05-17T03:55:48;16.20;;;6.43;;
37843;SDS011;63793;57.632;18.292;2023-05-17T03:58:16;22.10;;;5.97;;
37843;SDS011;63793;57.632;18.292;2023-05-17T04:00:43;18.17;;;7.25;;
37843;SDS011;63793;57.632;18.292;2023-05-17T04:03:14;17.63;;;5.90;;
37843;SDS011;63793;57.632;18.292;2023-05-17T04:05:44;13.38;;;6.47;;
37843;SDS011;63793;57.632;18.292;2023-05-17T04:08:12;19.05;;;7.82;;
37843;SDS011;63793;57.632;18.292;2023-05-17T04:10:39;17.30;;;6.57;;
37843;SDS011;63793;57.632;18.292;2023-05-17T04:13:07;14.57;;;6.28;;
37843;SDS011;63793;57.632;18.292;2023-05-17T04:15:36;16.40;;;5.45;;
37843;SDS011;63793;57.632;18.292;2023-05-17T04:18:04;11.18;;;5.80;;
37843;SDS011;63793;57.632;18.292;2023-05-17T04:20:31;15.35;;;6.35;;
37843;SDS011;63793;57.632;18.292;2023-05-17T04:22:58;9.40;;;5.05;;
37843;SDS011;63793;57.632;18.292;2023-05-17T04:25:28;13.75;;;5.53;;
37843;SDS011;63793;57.632;18.292;2023-05-17T04:27:55;11.65;;;5.97;;
37843;SDS011;63793;57.632;18.292;2023-05-17T04:30:23;18.73;;;4.97;;
37843;SDS011;63793;57.632;18.292;2023-05-17T04:32:50;13.70;;;5.05;;
37843;SDS011;63793;57.632;18.292;2023-05-17T04:35:17;18.83;;;4.70;;
37843;SDS011;63793;57.632;18.292;2023-05-17T04:37:47;17.85;;;7.20;;
37843;SDS011;63793;57.632;18.292;2023-05-17T04:40:19;11.20;;;5.57;;
37843;SDS011;63793;57.632;18.292;2023-05-17T04:42:47;13.27;;;6.07;;
37843;SDS011;63793;57.632;18.292;2023-05-17T04:45:15;8.68;;;4.85;;
37843;SDS011;63793;57.632;18.292;2023-05-17T04:47:43;13.60;;;5.28;;
37843;SDS011;63793;57.632;18.292;2023-05-17T04:50:10;14.38;;;4.57;;
37843;SDS011;63793;57.632;18.292;2023-05-17T04:52:38;10.73;;;4.82;;
37843;SDS011;63793;57.632;18.292;2023-05-17T04:55:06;14.85;;;6.20;;
37843;SDS011;63793;57.632;18.292;2023-05-17T04:57:34;13.82;;;5.18;;
37843;SDS011;63793;57.632;18.292;2023-05-17T05:00:03;16.88;;;6.10;;
37843;SDS011;63793;57.632;18.292;2023-05-17T05:02:38;13.07;;;5.18;;
37843;SDS011;63793;57.632;18.292;2023-05-17T05:05:06;13.57;;;4.20;;
37843;SDS011;63793;57.632;18.292;2023-05-17T05:07:35;13.77;;;4.22;;
37843;SDS011;63793;57.632;18.292;2023-05-17T05:10:06;10.88;;;4.40;;
37843;SDS011;63793;57.632;18.292;2023-05-17T05:12:33;16.38;;;5.38;;
37843;SDS011;63793;57.632;18.292;2023-05-17T05:15:00;10.90;;;5.35;;
37843;SDS011;63793;57.632;18.292;2023-05-17T05:17:28;15.13;;;5.38;;
37843;SDS011;63793;57.632;18.292;2023-05-17T05:19:56;17.38;;;6.00;;
37843;SDS011;63793;57.632;18.292;2023-05-17T05:22:24;13.20;;;7.60;;
37843;SDS011;63793;57.632;18.292;2023-05-17T05:24:52;18.45;;;7.00;;
37843;SDS011;63793;57.632;18.292;2023-05-17T05:27:21;17.73;;;6.28;;
37843;SDS011;63793;57.632;18.292;2023-05-17T05:29:49;11.02;;;3.65;;
37843;SDS011;63793;57.632;18.292;2023-05-17T05:32:16;13.90;;;5.78;;
37843;SDS011;63793;57.632;18.292;2023-05-17T05:34:44;13.65;;;5.20;;
37843;SDS011;63793;57.632;18.292;2023-05-17T05:37:12;12.00;;;5.80;;
37843;SDS011;63793;57.632;18.292;2023-05-17T05:39:41;14.88;;;4.65;;
37843;SDS011;63793;57.632;18.292;2023-05-17T05:42:08;7.45;;;3.83;;
37843;SDS011;63793;57.632;18.292;2023-05-17T05:44:34;12.48;;;5.50;;
37843;SDS011;63793;57.632;18.292;2023-05-17T05:47:01;8.65;;;4.18;;
37843;SDS011;63793;57.632;18.292;2023-05-17T05:49:28;14.73;;;5.22;;
37843;SDS011;63793;57.632;18.292;2023-05-17T05:51:55;15.02;;;4.43;;
37843;SDS011;63793;57.632;18.292;2023-05-17T05:54:25;16.65;;;5.13;;
37843;SDS011;63793;57.632;18.292;2023-05-17T05:56:52;13.90;;;4.55;;
37843;SDS011;63793;57.632;18.292;2023-05-17T05:59:20;13.43;;;4.82;;
37843;SDS011;63793;57.632;18.292;2023-05-17T06:01:47;9.63;;;5.20;;
37843;SDS011;63793;57.632;18.292;2023-05-17T06:04:14;12.02;;;4.68;;
37843;SDS011;63793;57.632;18.292;2023-05-17T06:06:41;12.13;;;4.63;;
37843;SDS011;63793;57.632;18.292;2023-05-17T06:09:08;14.40;;;6.47;;
37843;SDS011;63793;57.632;18.292;2023-05-17T06:11:37;15.48;;;4.60;;
37843;SDS011;63793;57.632;18.292;2023-05-17T06:14:05;14.70;;;4.30;;
37843;SDS011;63793;57.632;18.292;2023-05-17T06:16:33;19.05;;;5.80;;
37843;SDS011;63793;57.632;18.292;2023-05-17T06:19:00;15.60;;;4.90;;
37843;SDS011;63793;57.632;18.292;2023-05-17T06:21:28;13.93;;;5.07;;
37843;SDS011;63793;57.632;18.292;2023-05-17T06:23:56;15.55;;;6.13;;
37843;SDS011;63793;57.632;18.292;2023-05-17T06:26:23;9.07;;;4.80;;
37843;SDS011;63793;57.632;18.292;2023-05-17T06:28:50;14.23;;;6.70;;
37843;SDS011;63793;57.632;18.292;2023-05-17T06:31:16;8.73;;;4.10;;
37843;SDS011;63793;57.632;18.292;2023-05-17T06:33:46;14.10;;;4.72;;
37843;SDS011;63793;57.632;18.292;2023-05-17T06:36:13;9.60;;;4.10;;
37843;SDS011;63793;57.632;18.292;2023-05-17T06:38:40;10.55;;;4.85;;
37843;SDS011;63793;57.632;18.292;2023-05-17T06:41:07;16.98;;;6.53;;
37843;SDS011;63793;57.632;18.292;2023-05-17T06:43:34;8.18;;;3.92;;
37843;SDS011;63793;57.632;18.292;2023-05-17T06:46:03;8.73;;;4.68;;
37843;SDS011;63793;57.632;18.292;2023-05-17T06:48:30;7.78;;;3.63;;
37843;SDS011;63793;57.632;18.292;2023-05-17T06:50:57;6.13;;;3.63;;
37843;SDS011;63793;57.632;18.292;2023-05-17T06:53:23;13.95;;;6.70;;
37843;SDS011;63793;57.632;18.292;2023-05-17T06:55:52;17.98;;;5.80;;
37843;SDS011;63793;57.632;18.292;2023-05-17T06:58:19;11.25;;;5.38;;
37843;SDS011;63793;57.632;18.292;2023-05-17T07:00:46;14.68;;;4.53;;
37843;SDS011;63793;57.632;18.292;2023-05-17T07:03:13;10.75;;;3.97;;
37843;SDS011;63793;57.632;18.292;2023-05-17T07:05:40;10.45;;;4.20;;
37843;SDS011;63793;57.632;18.292;2023-05-17T07:08:07;9.02;;;4.22;;
37843;SDS011;63793;57.632;18.292;2023-05-17T07:10:34;15.20;;;4.65;;
37843;SDS011;63793;57.632;18.292;2023-05-17T07:13:01;11.23;;;4.65;;
37843;SDS011;63793;57.632;18.292;2023-05-17T07:15:28;16.25;;;5.50;;
37843;SDS011;63793;57.632;18.292;2023-05-17T07:17:55;16.38;;;4.65;;
37843;SDS011;63793;57.632;18.292;2023-05-17T07:20:22;8.13;;;4.45;;
37843;SDS011;63793;57.632;18.292;2023-05-17T07:22:49;9.35;;;4.57;;
37843;SDS011;63793;57.632;18.292;2023-05-17T07:25:16;7.90;;;4.13;;
37843;SDS011;63793;57.632;18.292;2023-05-17T07:27:44;7.80;;;4.78;;
37843;SDS011;63793;57.632;18.292;2023-05-17T07:30:11;10.68;;;3.90;;
37843;SDS011;63793;57.632;18.292;2023-05-17T07:32:38;13.73;;;4.90;;
37843;SDS011;63793;57.632;18.292;2023-05-17T07:35:05;12.65;;;4.28;;
37843;SDS011;63793;57.632;18.292;2023-05-17T07:37:33;6.57;;;4.95;;
37843;SDS011;63793;57.632;18.292;2023-05-17T07:40:00;17.73;;;4.13;;
37843;SDS011;63793;57.632;18.292;2023-05-17T07:42:27;6.05;;;2.88;;
37843;SDS011;63793;57.632;18.292;2023-05-17T07:44:54;12.75;;;3.53;;
37843;SDS011;63793;57.632;18.292;2023-05-17T07:47:21;8.52;;;3.53;;
37843;SDS011;63793;57.632;18.292;2023-05-17T07:49:48;14.27;;;4.13;;
37843;SDS011;63793;57.632;18.292;2023-05-17T07:52:14;5.63;;;3.20;;
37843;SDS011;63793;57.632;18.292;2023-05-17T07:54:41;10.40;;;4.40;;
37843;SDS011;63793;57.632;18.292;2023-05-17T07:57:08;11.65;;;3.35;;
37843;SDS011;63793;57.632;18.292;2023-05-17T07:59:35;11.70;;;3.95;;
37843;SDS011;63793;57.632;18.292;2023-05-17T08:02:02;7.43;;;3.75;;
37843;SDS011;63793;57.632;18.292;2023-05-17T08:04:29;9.70;;;3.45;;
37843;SDS011;63793;57.632;18.292;2023-05-17T08:06:56;8.27;;;5.00;;
37843;SDS011;63793;57.632;18.292;2023-05-17T08:09:23;12.32;;;2.92;;
37843;SDS011;63793;57.632;18.292;2023-05-17T08:11:50;9.05;;;3.10;;
37843;SDS011;63793;57.632;18.292;2023-05-17T08:14:17;7.38;;;2.67;;
37843;SDS011;63793;57.632;18.292;2023-05-17T08:16:46;10.90;;;3.63;;
37843;SDS011;63793;57.632;18.292;2023-05-17T08:19:13;6.85;;;2.38;;
37843;SDS011;63793;57.632;18.292;2023-05-17T08:21:41;9.20;;;3.30;;
37843;SDS011;63793;57.632;18.292;2023-05-17T08:24:09;8.02;;;2.85;;
37843;SDS011;63793;57.632;18.292;2023-05-17T08:26:36;7.95;;;2.28;;
37843;SDS011;63793;57.632;18.292;2023-05-17T08:29:04;8.13;;;2.97;;
37843;SDS011;63793;57.632;18.292;2023-05-17T08:31:31;14.02;;;3.83;;
37843;SDS011;63793;57.632;18.292;2023-05-17T08:33:58;4.82;;;3.42;;
37843;SDS011;63793;57.632;18.292;2023-05-17T08:36:28;7.45;;;1.73;;
37843;SDS011;63793;57.632;18.292;2023-05-17T08:38:55;8.23;;;3.38;;
37843;SDS011;63793;57.632;18.292;2023-05-17T08:41:23;2.88;;;1.73;;
37843;SDS011;63793;57.632;18.292;2023-05-17T08:43:50;5.68;;;1.52;;
37843;SDS011;63793;57.632;18.292;2023-05-17T08:46:18;11.40;;;2.10;;
37843;SDS011;63793;57.632;18.292;2023-05-17T08:48:50;4.85;;;2.85;;
37843;SDS011;63793;57.632;18.292;2023-05-17T08:51:18;7.07;;;1.77;;
37843;SDS011;63793;57.632;18.292;2023-05-17T08:53:47;6.03;;;2.67;;
37843;SDS011;63793;57.632;18.292;2023-05-17T08:56:16;9.82;;;3.30;;
37843;SDS011;63793;57.632;18.292;2023-05-17T08:58:45;6.93;;;1.50;;
37843;SDS011;63793;57.632;18.292;2023-05-17T09:01:23;3.50;;;1.88;;
37843;SDS011;63793;57.632;18.292;2023-05-17T09:03:52;8.35;;;2.78;;
37843;SDS011;63793;57.632;18.292;2023-05-17T09:06:20;6.57;;;1.52;;
37843;SDS011;63793;57.632;18.292;2023-05-17T09:08:49;4.05;;;1.08;;
37843;SDS011;63793;57.632;18.292;2023-05-17T09:11:23;4.67;;;1.97;;
37843;SDS011;63793;57.632;18.292;2023-05-17T09:13:53;4.50;;;1.50;;
37843;SDS011;63793;57.632;18.292;2023-05-17T09:16:23;3.10;;;1.20;;
37843;SDS011;63793;57.632;18.292;2023-05-17T09:18:55;9.38;;;1.70;;
37843;SDS011;63793;57.632;18.292;2023-05-17T09:21:23;4.75;;;1.40;;
37843;SDS011;63793;57.632;18.292;2023-05-17T09:23:52;3.67;;;1.30;;
37843;SDS011;63793;57.632;18.292;2023-05-17T09:26:39;4.75;;;1.65;;
37843;SDS011;63793;57.632;18.292;2023-05-17T09:29:09;2.08;;;0.80;;
37843;SDS011;63793;57.632;18.292;2023-05-17T09:31:37;4.78;;;0.65;;
37843;SDS011;63793;57.632;18.292;2023-05-17T09:34:05;6.63;;;1.45;;
37843;SDS011;63793;57.632;18.292;2023-05-17T09:36:37;2.33;;;0.98;;
37843;SDS011;63793;57.632;18.292;2023-05-17T09:39:07;6.47;;;1.00;;
37843;SDS011;63793;57.632;18.292;2023-05-17T09:41:41;19.98;;;1.52;;
37843;SDS011;63793;57.632;18.292;2023-05-17T09:44:13;4.10;;;1.00;;
37843;SDS011;63793;57.632;18.292;2023-05-17T09:46:41;2.60;;;1.35;;
37843;SDS011;63793;57.632;18.292;2023-05-17T09:49:11;1.63;;;0.70;;
37843;SDS011;63793;57.632;18.292;2023-05-17T09:51:40;9.50;;;1.13;;
37843;SDS011;63793;57.632;18.292;2023-05-17T09:54:08;1.77;;;0.73;;
37843;SDS011;63793;57.632;18.292;2023-05-17T09:56:36;4.00;;;0.77;;
37843;SDS011;63793;57.632;18.292;2023-05-17T09:59:03;4.00;;;1.65;;
37843;SDS011;63793;57.632;18.292;2023-05-17T10:01:41;3.83;;;0.85;;
37843;SDS011;63793;57.632;18.292;2023-05-17T10:04:11;2.97;;;0.70;;
37843;SDS011;63793;57.632;18.292;2023-05-17T10:06:39;4.00;;;1.05;;
37843;SDS011;63793;57.632;18.292;2023-05-17T10:09:13;2.58;;;1.00;;
37843;SDS011;63793;57.632;18.292;2023-05-17T10:11:42;3.25;;;1.27;;
37843;SDS011;63793;57.632;18.292;2023-05-17T10:14:15;2.00;;;0.70;;
37843;SDS011;63793;57.632;18.292;2023-05-17T10:16:44;1.45;;;0.63;;
37843;SDS011;63793;57.632;18.292;2023-05-17T10:19:12;2.53;;;1.20;;
37843;SDS011;63793;57.632;18.292;2023-05-17T10:21:40;2.90;;;0.45;;
37843;SDS011;63793;57.632;18.292;2023-05-17T10:24:08;3.90;;;1.05;;
37843;SDS011;63793;57.632;18.292;2023-05-17T10:26:36;2.28;;;0.98;;
37843;SDS011;63793;57.632;18.292;2023-05-17T10:29:04;6.63;;;1.25;;
37843;SDS011;63793;57.632;18.292;2023-05-17T10:31:32;5.38;;;1.75;;
37843;SDS011;63793;57.632;18.292;2023-05-17T10:34:03;4.03;;;0.57;;
37843;SDS011;63793;57.632;18.292;2023-05-17T10:36:32;6.75;;;0.85;;
37843;SDS011;63793;57.632;18.292;2023-05-17T10:38:59;2.17;;;0.93;;
37843;SDS011;63793;57.632;18.292;2023-05-17T10:41:31;3.75;;;1.85;;
37843;SDS011;63793;57.632;18.292;2023-05-17T10:44:00;2.50;;;0.73;;
37843;SDS011;63793;57.632;18.292;2023-05-17T10:46:29;6.07;;;1.20;;
37843;SDS011;63793;57.632;18.292;2023-05-17T10:48:57;2.30;;;0.77;;
37843;SDS011;63793;57.632;18.292;2023-05-17T10:51:28;5.20;;;1.27;;
37843;SDS011;63793;57.632;18.292;2023-05-17T10:54:03;3.53;;;1.48;;
37843;SDS011;63793;57.632;18.292;2023-05-17T10:56:30;5.25;;;1.90;;
37843;SDS011;63793;57.632;18.292;2023-05-17T10:59:13;2.30;;;0.88;;
37843;SDS011;63793;57.632;18.292;2023-05-17T11:04:30;2.55;;;0.93;;
37843;SDS011;63793;57.632;18.292;2023-05-17T11:09:43;2.60;;;1.10;;
37843;SDS011;63793;57.632;18.292;2023-05-17T11:12:11;1.45;;;0.75;;
37843;SDS011;63793;57.632;18.292;2023-05-17T11:14:52;4.32;;;1.13;;
37843;SDS011;63793;57.632;18.292;2023-05-17T11:17:20;4.32;;;1.40;;
37843;SDS011;63793;57.632;18.292;2023-05-17T11:22:19;2.58;;;0.60;;
37843;SDS011;63793;57.632;18.292;2023-05-17T11:24:52;6.00;;;1.88;;
37843;SDS011;63793;57.632;18.292;2023-05-17T11:29:53;4.95;;;0.80;;
37843;SDS011;63793;57.632;18.292;2023-05-17T11:32:27;1.80;;;0.70;;
37843;SDS011;63793;57.632;18.292;2023-05-17T11:34:54;4.10;;;1.20;;
37843;SDS011;63793;57.632;18.292;2023-05-17T11:37:25;3.83;;;1.83;;
37843;SDS011;63793;57.632;18.292;2023-05-17T11:40:05;2.17;;;0.90;;
37843;SDS011;63793;57.632;18.292;2023-05-17T11:42:34;1.48;;;0.70;;
37843;SDS011;63793;57.632;18.292;2023-05-17T11:45:02;2.42;;;0.80;;
37843;SDS011;63793;57.632;18.292;2023-05-17T11:47:30;8.15;;;2.05;;
37843;SDS011;63793;57.632;18.292;2023-05-17T11:50:01;6.57;;;1.73;;
37843;SDS011;63793;57.632;18.292;2023-05-17T11:52:29;3.50;;;1.30;;
37843;SDS011;63793;57.632;18.292;2023-05-17T11:54:57;4.93;;;1.80;;
37843;SDS011;63793;57.632;18.292;2023-05-17T11:57:28;7.60;;;0.98;;
37843;SDS011;63793;57.632;18.292;2023-05-17T12:00:02;5.25;;;1.15;;
37843;SDS011;63793;57.632;18.292;2023-05-17T12:02:39;4.90;;;1.15;;
37843;SDS011;63793;57.632;18.292;2023-05-17T12:05:07;4.40;;;0.93;;
37843;SDS011;63793;57.632;18.292;2023-05-17T12:07:34;2.50;;;0.95;;
37843;SDS011;63793;57.632;18.292;2023-05-17T12:10:02;4.88;;;0.90;;
37843;SDS011;63793;57.632;18.292;2023-05-17T12:12:31;20.83;;;2.08;;
37843;SDS011;63793;57.632;18.292;2023-05-17T12:14:58;2.58;;;1.20;;
37843;SDS011;63793;57.632;18.292;2023-05-17T12:17:28;2.78;;;1.98;;
37843;SDS011;63793;57.632;18.292;2023-05-17T12:20:07;3.38;;;0.70;;
37843;SDS011;63793;57.632;18.292;2023-05-17T12:22:54;4.82;;;1.10;;
37843;SDS011;63793;57.632;18.292;2023-05-17T12:25:22;6.13;;;0.70;;
37843;SDS011;63793;57.632;18.292;2023-05-17T12:30:41;2.72;;;0.68;;
37843;SDS011;63793;57.632;18.292;2023-05-17T12:33:08;3.20;;;0.70;;
37843;SDS011;63793;57.632;18.292;2023-05-17T12:35:36;5.15;;;0.88;;
37843;SDS011;63793;57.632;18.292;2023-05-17T12:38:03;1.55;;;0.70;;
37843;SDS011;63793;57.632;18.292;2023-05-17T12:40:30;1.80;;;0.77;;
37843;SDS011;63793;57.632;18.292;2023-05-17T12:43:03;3.38;;;0.80;;
37843;SDS011;63793;57.632;18.292;2023-05-17T12:45:30;4.30;;;0.70;;
37843;SDS011;63793;57.632;18.292;2023-05-17T12:47:58;3.08;;;0.88;;
37843;SDS011;63793;57.632;18.292;2023-05-17T12:50:29;7.43;;;1.20;;
37843;SDS011;63793;57.632;18.292;2023-05-17T12:52:56;6.80;;;1.05;;
37843;SDS011;63793;57.632;18.292;2023-05-17T12:55:23;1.73;;;0.80;;
37843;SDS011;63793;57.632;18.292;2023-05-17T12:57:51;0.68;;;0.50;;
37843;SDS011;63793;57.632;18.292;2023-05-17T13:00:19;6.35;;;1.60;;
37843;SDS011;63793;57.632;18.292;2023-05-17T13:02:47;9.05;;;0.98;;
37843;SDS011;63793;57.632;18.292;2023-05-17T13:05:17;1.92;;;1.25;;
37843;SDS011;63793;57.632;18.292;2023-05-17T13:07:47;3.35;;;1.52;;
37843;SDS011;63793;57.632;18.292;2023-05-17T13:10:24;2.38;;;1.25;;
37843;SDS011;63793;57.632;18.292;2023-05-17T13:12:53;2.78;;;1.02;;
37843;SDS011;63793;57.632;18.292;2023-05-17T13:15:27;5.90;;;0.70;;
37843;SDS011;63793;57.632;18.292;2023-05-17T13:17:58;1.10;;;1.02;;
37843;SDS011;63793;57.632;18.292;2023-05-17T13:20:26;4.88;;;0.88;;
37843;SDS011;63793;57.632;18.292;2023-05-17T13:22:53;0.22;;;0.22;;
37843;SDS011;63793;57.632;18.292;2023-05-17T13:25:20;2.70;;;0.40;;
37843;SDS011;63793;57.632;18.292;2023-05-17T13:27:47;2.22;;;0.65;;
37843;SDS011;63793;57.632;18.292;2023-05-17T13:30:15;1.85;;;0.50;;
37843;SDS011;63793;57.632;18.292;2023-05-17T13:32:42;1.02;;;1.00;;
37843;SDS011;63793;57.632;18.292;2023-05-17T13:35:10;1.08;;;0.45;;
37843;SDS011;63793;57.632;18.292;2023-05-17T13:37:37;1.75;;;0.68;;
37843;SDS011;63793;57.632;18.292;2023-05-17T13:40:04;6.22;;;0.73;;
37843;SDS011;63793;57.632;18.292;2023-05-17T13:42:32;2.67;;;0.60;;
37843;SDS011;63793;57.632;18.292;2023-05-17T13:44:59;1.85;;;0.60;;
37843;SDS011;63793;57.632;18.292;2023-05-17T13:47:26;0.98;;;0.30;;
37843;SDS011;63793;57.632;18.292;2023-05-17T13:49:58;3.03;;;0.80;;
37843;SDS011;63793;57.632;18.292;2023-05-17T13:52:26;2.83;;;1.15;;
37843;SDS011;63793;57.632;18.292;2023-05-17T13:54:53;0.65;;;0.57;;
37843;SDS011;63793;57.632;18.292;2023-05-17T13:57:20;1.17;;;0.73;;
37843;SDS011;63793;57.632;18.292;2023-05-17T13:59:47;2.08;;;0.40;;
37843;SDS011;63793;57.632;18.292;2023-05-17T14:02:14;1.98;;;1.38;;
37843;SDS011;63793;57.632;18.292;2023-05-17T14:04:40;1.80;;;0.40;;
37843;SDS011;63793;57.632;18.292;2023-05-17T14:07:07;0.20;;;0.20;;
37843;SDS011;63793;57.632;18.292;2023-05-17T14:09:34;0.68;;;0.50;;
37843;SDS011;63793;57.632;18.292;2023-05-17T14:12:03;1.15;;;0.43;;
37843;SDS011;63793;57.632;18.292;2023-05-17T14:14:30;2.08;;;0.40;;
37843;SDS011;63793;57.632;18.292;2023-05-17T14:16:57;4.50;;;0.57;;
37843;SDS011;63793;57.632;18.292;2023-05-17T14:19:24;0.60;;;0.43;;
37843;SDS011;63793;57.632;18.292;2023-05-17T14:21:51;1.90;;;0.40;;
37843;SDS011;63793;57.632;18.292;2023-05-17T14:24:18;1.25;;;0.38;;
37843;SDS011;63793;57.632;18.292;2023-05-17T14:26:45;1.48;;;0.35;;
37843;SDS011;63793;57.632;18.292;2023-05-17T14:29:11;3.40;;;0.63;;
37843;SDS011;63793;57.632;18.292;2023-05-17T14:31:38;2.95;;;0.40;;
37843;SDS011;63793;57.632;18.292;2023-05-17T14:34:06;1.10;;;0.55;;
37843;SDS011;63793;57.632;18.292;2023-05-17T14:36:33;2.28;;;0.50;;
37843;SDS011;63793;57.632;18.292;2023-05-17T14:39:01;3.65;;;0.68;;
37843;SDS011;63793;57.632;18.292;2023-05-17T14:41:29;4.97;;;0.50;;
37843;SDS011;63793;57.632;18.292;2023-05-17T14:43:56;0.30;;;0.30;;
37843;SDS011;63793;57.632;18.292;2023-05-17T14:46:23;4.18;;;0.60;;
37843;SDS011;63793;57.632;18.292;2023-05-17T14:48:50;0.77;;;0.20;;
37843;SDS011;63793;57.632;18.292;2023-05-17T14:51:17;2.60;;;1.77;;
37843;SDS011;63793;57.632;18.292;2023-05-17T14:53:45;2.97;;;0.52;;
37843;SDS011;63793;57.632;18.292;2023-05-17T14:56:11;2.63;;;0.50;;